首页
METAR-TAF:

METAR-TAF

机场 :

锡利群岛, 英格兰

纬度: 49-55N, 经度: 006-18W, 海拔: 31米

当前天气观测

该预报发布于29分钟前的15:50 UTC
风速4节,风向西转西南
温度 11°C
湿度 87%
气压 1003 hPa
能见度10公里或以上
少量云层高于1000英尺
散云层高于3200英尺
附近有阵雨

METAR: EGHE 231550Z 25004KT 9999 VCSH FEW010 SCT032 11/09 Q1003

时间: 17:19 (16:19 UTC)

预报

该预报发布于14分钟前的16:05 UTC
预报有效从23日的 16点(UTC)到 23日的 18点(UTC)
风速7节,风向西转西南
能见度10公里或以上
散云层高于2500英尺
成为
从 23日的 16点(UTC)到 23日的 18点(UTC)
风速17节,风向西
短暂存在
从 23日的 16点(UTC)到 23日的 18点(UTC)
能見度: 7000
阵雨
几率 30% :
短暂存在
从 23日的 16点(UTC)到 23日的 18点(UTC)
能見度: 4000
多云层高于1000英尺
大阵雨

TAF: EGHE 231605Z 2316/2318 25007KT 9999 SCT025 BECMG 2316/2318 26017KT TEMPO 2316/2318 7000 SHRA PROB30 TEMPO 2316/2318 4000 +SHRA BKN010

超过4000个机场的气象观测和天气预报(METAR&TAF报告)。

可查询的气象台以黄色和红色小点在地图上表示。

将鼠标移到小点上方,可查看气象台名称。

然后点击查看天气观测和预报。

如需切换地图:点击带黑十字的绿色按钮放大地图;点击带横线的绿色按钮缩小地图;或者点击绿色箭头查看邻近地区的地图。


METAR-TAF: